Flight Track Log - Related Links

Times and Time Zones

All times are in EDT time to prevent confusion due to time zone crossing. See the HAL104 flight status page for this flight to view local times or setup timezone preferences in your user account.

Time Position Orientation Groundspeed Altitude Reporting Facility
EDT Latitude Longitude Course Direction KTS MPH feet Rate Location/Type
Sat 12:31:04 PM 21.9833 -159.3167 115° Southeast 160 184 1,200  Level Honolulu Center
Sat 12:32:04 PM 21.9833 -159.2667 90° East 180 207 2,600 1,750 Climbing Honolulu Center
Sat 12:33:04 PM 21.9500 -159.2167 126° Southeast 230 265 4,700 1,934 Climbing Honolulu Center
Sat 12:34:00 PM 21.8383 -159.0390 116° Southeast  Level Estimated
Sat 12:34:05 PM 21.9167 -159.1500 118° Southeast 270 311 6,500  Level Honolulu Center
Sat 12:35:00 PM 21.8004 -158.9661 119° Southeast  Level FlightAware Approximate
Sat 12:35:05 PM 21.8667 -159.0833 129° Southeast 290 334 8,800  Level Honolulu Center
Sat 12:36:00 PM 21.7661 -158.8911 115° Southeast  Level Estimated
Sat 12:36:05 PM 21.8167 -159.0000 123° Southeast 300 345 10,700  Level Honolulu Center
Sat 12:37:05 PM 21.7667 -158.9167 123° Southeast 350 403 11,900 1,150 Climbing Honolulu Center
Sat 12:38:05 PM 21.7000 -158.8333 131° Southeast 360 414 13,000 550 Climbing Honolulu Center
Sat 12:39:05 PM 21.6500 -158.7500 123° Southeast 360 414 13,000  Level Honolulu Center
Sat 12:40:06 PM 21.5833 -158.6500 126° Southeast 360 414 13,000  Level Honolulu Center
Sat 12:41:06 PM 21.5333 -158.5667 123° Southeast 360 414 13,000 -900 Level Honolulu Center
Sat 12:42:06 PM 21.4833 -158.4833 123° Southeast 350 403 11,200 -1,450 Descending Honolulu Center
Sat 12:43:06 PM 21.4333 -158.4000 123° Southeast 310 357 10,100 -1,462 Descending Honolulu Center
Sat 12:44:05 PM 21.4000 -158.3167 113° Southeast 290 334 8,300 -1,750 Descending Honolulu Center
Sat 12:45:06 PM 21.3500 -158.2500 129° Southeast 290 334 6,600 -1,686 Descending Honolulu Center
Sat 12:46:06 PM 21.3167 -158.1833 118° Southeast 270 311 4,900 -1,700 Descending Honolulu Center
Sat 12:47:06 PM 21.2833 -158.1000 113° Southeast 260 299 3,200 -1,050 Descending Honolulu Center
Sat 12:48:06 PM 21.2833 -158.0333 90° East 200 230 2,800 -1,050 Descending Honolulu Center
Sat 12:49:06 PM 21.3000 -157.9833 70° East 170 196 1,100 -1,700 Descending Honolulu Center

Login

Don't have an account? Register now (free) for customized features, flight alerts, and more!